createdAt,value
2018-11-12T00:01:13.591Z,6.90
2018-11-12T00:03:42.171Z,6.90
2018-11-12T00:06:10.658Z,6.90
2018-11-12T00:08:39.341Z,6.80
2018-11-12T00:11:08.031Z,6.90
2018-11-12T00:13:36.975Z,6.90
2018-11-12T00:16:05.976Z,6.90
2018-11-12T00:18:34.978Z,6.90
2018-11-12T00:21:03.395Z,6.90
2018-11-12T00:23:31.955Z,6.90
2018-11-12T00:26:00.446Z,6.90
2018-11-12T00:28:29.030Z,6.90
2018-11-12T00:30:57.687Z,6.90
2018-11-12T00:33:26.099Z,6.90
2018-11-12T00:35:54.570Z,6.80
2018-11-12T00:38:23.158Z,6.80
2018-11-12T00:40:51.576Z,6.70
2018-11-12T00:43:19.911Z,6.70
2018-11-12T00:45:48.395Z,6.80
2018-11-12T00:48:16.968Z,6.70
2018-11-12T00:50:45.483Z,6.70
2018-11-12T00:53:14.420Z,6.70
2018-11-12T00:55:43.139Z,6.60
2018-11-12T00:58:11.647Z,6.60
2018-11-12T01:00:40.379Z,6.60
2018-11-12T01:03:08.791Z,6.60
2018-11-12T01:05:37.551Z,6.60
2018-11-12T01:08:06.448Z,6.60
2018-11-12T01:10:34.963Z,6.60
2018-11-12T01:13:03.704Z,6.60
2018-11-12T01:15:32.347Z,6.70
2018-11-12T01:18:01.395Z,6.70
2018-11-12T01:20:29.947Z,6.50
2018-11-12T01:22:58.275Z,6.40
2018-11-12T01:25:27.039Z,6.50
2018-11-12T01:27:55.643Z,6.50
2018-11-12T01:30:24.088Z,6.40
2018-11-12T01:32:52.829Z,6.40
2018-11-12T01:35:21.719Z,6.50
2018-11-12T01:37:50.468Z,6.50
2018-11-12T01:40:19.075Z,6.40
2018-11-12T01:42:47.507Z,6.40
2018-11-12T01:45:18.238Z,6.40
2018-11-12T01:47:47.878Z,6.40
2018-11-12T01:50:16.959Z,6.40
2018-11-12T01:52:46.198Z,6.40
2018-11-12T01:55:15.719Z,6.40
2018-11-12T01:57:44.572Z,6.50
2018-11-12T02:00:15.102Z,6.50
2018-11-12T02:02:45.264Z,6.50
2018-11-12T02:05:13.725Z,6.50
2018-11-12T02:07:42.256Z,6.40
2018-11-12T02:10:12.410Z,6.30
2018-11-12T02:12:41.380Z,6.30
2018-11-12T02:15:13.123Z,6.40
2018-11-12T02:17:42.533Z,6.30
2018-11-12T02:20:13.224Z,6.30
2018-11-12T02:22:42.374Z,6.30
2018-11-12T02:25:11.793Z,6.20
2018-11-12T02:27:40.544Z,6.20
2018-11-12T02:30:13.072Z,6.10
2018-11-12T02:32:41.517Z,6.10
2018-11-12T02:35:10.731Z,6.10
2018-11-12T02:37:39.783Z,6.20
2018-11-12T02:40:10.683Z,6.10
2018-11-12T02:42:39.166Z,6.20
2018-11-12T02:45:08.855Z,6.20
2018-11-12T02:47:37.498Z,6.20
2018-11-12T02:50:06.906Z,6.20
2018-11-12T02:52:35.376Z,6.20
2018-11-12T02:55:03.902Z,6.10
2018-11-12T02:57:32.848Z,6.10
2018-11-12T03:00:01.707Z,6.10
2018-11-12T03:02:30.451Z,6.00
2018-11-12T03:04:59.127Z,6.10
2018-11-12T03:07:28.004Z,6.10
2018-11-12T03:09:56.388Z,6.00
2018-11-12T03:12:24.876Z,6.00
2018-11-12T03:14:53.440Z,6.00
2018-11-12T03:17:21.840Z,6.00
2018-11-12T03:19:50.315Z,6.00
2018-11-12T03:22:19.102Z,6.00
2018-11-12T03:24:47.975Z,5.80
2018-11-12T03:27:16.376Z,5.90
2018-11-12T03:29:44.866Z,5.90
2018-11-12T03:32:13.455Z,5.90
2018-11-12T03:34:41.909Z,5.80
2018-11-12T03:37:10.399Z,5.80
2018-11-12T03:39:38.961Z,5.90
2018-11-12T03:42:07.864Z,5.80
2018-11-12T03:44:36.467Z,5.80
2018-11-12T03:47:05.288Z,5.80
2018-11-12T03:49:33.971Z,5.80
2018-11-12T03:52:02.446Z,5.70
2018-11-12T03:54:31.266Z,5.70
2018-11-12T03:56:59.812Z,5.70
2018-11-12T03:59:28.399Z,5.60
2018-11-12T04:01:56.955Z,5.60
2018-11-12T04:04:25.708Z,5.60
2018-11-12T04:06:54.337Z,5.50
2018-11-12T04:09:22.710Z,5.50
2018-11-12T04:11:51.291Z,5.60
2018-11-12T04:14:20.171Z,5.60
2018-11-12T04:16:48.657Z,5.60
2018-11-12T04:19:17.254Z,5.60
2018-11-12T04:21:45.843Z,5.60
2018-11-12T04:24:14.323Z,5.60
2018-11-12T04:26:42.999Z,5.50
2018-11-12T04:29:11.612Z,5.60
2018-11-12T04:31:40.361Z,5.60
2018-11-12T04:34:09.159Z,5.60
2018-11-12T04:36:37.775Z,5.60
2018-11-12T04:39:08.551Z,5.60
2018-11-12T04:41:37.276Z,5.60
2018-11-12T04:44:05.979Z,5.50
2018-11-12T04:46:34.437Z,5.50
2018-11-12T04:49:02.911Z,5.50
2018-11-12T04:51:31.680Z,5.50
2018-11-12T04:54:00.699Z,5.60
2018-11-12T04:56:29.402Z,5.60
2018-11-12T04:58:58.090Z,5.60
2018-11-12T05:01:26.488Z,5.60
2018-11-12T05:03:55.176Z,5.60
2018-11-12T05:06:23.745Z,5.60
2018-11-12T05:08:52.240Z,5.60
2018-11-12T05:11:20.919Z,5.50
2018-11-12T05:13:49.483Z,5.50
2018-11-12T05:16:17.968Z,5.50
2018-11-12T05:18:46.595Z,5.50
2018-11-12T05:21:14.943Z,5.50
2018-11-12T05:23:43.440Z,5.50
2018-11-12T05:26:12.111Z,5.50
2018-11-12T05:28:40.590Z,5.50
2018-11-12T05:31:10.067Z,5.50
2018-11-12T05:33:38.661Z,5.50
2018-11-12T05:36:07.055Z,5.50
2018-11-12T05:38:35.424Z,5.50
2018-11-12T05:41:03.860Z,5.50
2018-11-12T05:43:32.382Z,5.50
2018-11-12T05:46:01.268Z,5.50
2018-11-12T05:48:29.975Z,5.40
2018-11-12T05:51:00.875Z,5.40
2018-11-12T05:53:29.668Z,5.30
2018-11-12T05:55:58.195Z,5.40
2018-11-12T05:58:26.779Z,5.40
2018-11-12T06:00:55.265Z,5.40
2018-11-12T06:03:23.728Z,5.40
2018-11-12T06:05:52.227Z,5.40
2018-11-12T06:08:20.606Z,5.30
2018-11-12T06:10:49.103Z,5.30
2018-11-12T06:13:22.173Z,5.30
2018-11-12T06:15:50.811Z,5.30
2018-11-12T06:18:19.515Z,5.20
2018-11-12T06:20:48.023Z,5.30
2018-11-12T06:23:16.707Z,5.30
2018-11-12T06:25:45.178Z,5.30
2018-11-12T06:28:13.876Z,5.30
2018-11-12T06:30:42.563Z,5.20
2018-11-12T06:33:11.243Z,5.20
2018-11-12T06:35:40.103Z,5.20
2018-11-12T06:38:08.616Z,5.30
2018-11-12T06:40:37.187Z,5.30
2018-11-12T06:43:06.030Z,5.30
2018-11-12T06:45:34.606Z,5.10
2018-11-12T06:48:03.919Z,5.20
2018-11-12T06:50:33.194Z,5.30
2018-11-12T06:53:02.252Z,5.40
2018-11-12T06:55:30.648Z,5.40
2018-11-12T06:58:00.186Z,5.60
2018-11-12T07:00:30.024Z,5.80
2018-11-12T07:02:58.579Z,5.90
2018-11-12T07:05:27.671Z,6.00
2018-11-12T07:07:56.403Z,6.00
2018-11-12T07:10:26.320Z,6.00
2018-11-12T07:12:55.679Z,6.10
2018-11-12T07:15:25.631Z,6.10
2018-11-12T07:17:54.163Z,6.10
2018-11-12T07:20:23.755Z,6.10
2018-11-12T07:22:52.467Z,6.10
2018-11-12T07:25:22.491Z,6.10
2018-11-12T07:27:51.217Z,6.20
2018-11-12T07:30:24.578Z,6.30
2018-11-12T07:32:54.424Z,6.40
2018-11-12T07:35:23.163Z,6.50
2018-11-12T07:37:53.127Z,6.60
2018-11-12T07:40:22.159Z,6.60
2018-11-12T07:42:50.834Z,6.70
2018-11-12T07:45:21.756Z,6.80
2018-11-12T07:47:51.156Z,6.80
2018-11-12T07:50:22.051Z,6.90
2018-11-12T07:52:50.986Z,7.10
2018-11-12T07:55:20.847Z,7.20
2018-11-12T07:57:50.841Z,7.30
2018-11-12T08:00:21.717Z,7.50
2018-11-12T08:02:54.173Z,7.70
2018-11-12T08:05:22.869Z,7.90
2018-11-12T08:07:51.323Z,8.10
2018-11-12T08:10:19.839Z,8.30
2018-11-12T08:12:48.454Z,8.50
2018-11-12T08:15:18.234Z,8.70
2018-11-12T08:17:47.139Z,8.80
2018-11-12T08:20:18.986Z,9.00
2018-11-12T08:22:48.391Z,9.40
2018-11-12T08:25:17.019Z,9.80
2018-11-12T08:27:45.904Z,9.90
2018-11-12T08:30:16.439Z,10.00
2018-11-12T08:32:46.200Z,10.20
2018-11-12T08:35:15.094Z,10.50
2018-11-12T08:37:43.954Z,10.60
2018-11-12T08:40:13.617Z,10.70
2018-11-12T08:42:42.644Z,10.90
2018-11-12T08:45:11.667Z,11.00
2018-11-12T08:47:41.140Z,11.00
2018-11-12T08:50:13.926Z,11.10
2018-11-12T08:52:43.737Z,11.20
2018-11-12T08:55:14.209Z,11.40
2018-11-12T08:57:44.447Z,11.60
2018-11-12T09:00:13.198Z,11.70
2018-11-12T09:02:42.143Z,11.90
2018-11-12T09:05:12.598Z,11.90
2018-11-12T09:07:42.419Z,12.10
2018-11-12T09:10:15.241Z,12.20
2018-11-12T09:12:43.927Z,12.30
2018-11-12T09:15:12.671Z,12.30
2018-11-12T09:17:41.909Z,12.50
2018-11-12T09:20:15.469Z,12.60
2018-11-12T09:22:44.319Z,13.00
2018-11-12T09:25:14.239Z,13.10
2018-11-12T09:27:42.857Z,13.30
2018-11-12T09:30:13.068Z,13.50
2018-11-12T09:32:42.091Z,13.70
2018-11-12T09:35:14.786Z,13.80
2018-11-12T09:37:44.416Z,14.00
2018-11-12T09:40:15.035Z,13.90
2018-11-12T09:42:43.641Z,13.90
2018-11-12T09:45:12.319Z,13.70
2018-11-12T09:47:41.906Z,13.60
2018-11-12T09:50:16.335Z,13.50
2018-11-12T09:52:46.199Z,12.80
2018-11-12T09:55:15.609Z,12.40
2018-11-12T09:57:45.699Z,12.10
2018-11-12T10:00:15.631Z,11.90
2018-11-12T10:02:46.170Z,11.80
2018-11-12T10:05:15.706Z,11.70
2018-11-12T10:07:44.756Z,11.60
2018-11-12T10:10:23.449Z,11.60
2018-11-12T10:12:51.007Z,11.70
2018-11-12T10:15:21.137Z,11.70
2018-11-12T10:17:50.056Z,11.60
2018-11-12T10:20:15.154Z,11.80
2018-11-12T10:22:43.702Z,11.90
2018-11-12T10:25:12.091Z,12.00
2018-11-12T10:27:40.556Z,12.20
2018-11-12T10:30:10.612Z,12.50
2018-11-12T10:32:39.275Z,12.50
2018-11-12T10:35:08.363Z,12.60
2018-11-12T10:37:37.625Z,12.50
2018-11-12T10:40:08.612Z,12.60
2018-11-12T10:42:37.328Z,12.60
2018-11-12T10:45:06.236Z,12.60
2018-11-12T10:47:34.672Z,12.70
2018-11-12T10:50:03.512Z,12.60
2018-11-12T10:52:31.951Z,12.50
2018-11-12T10:55:04.891Z,12.50
2018-11-12T10:57:29.087Z,12.50
2018-11-12T10:59:58.048Z,12.50
2018-11-12T11:02:31.554Z,12.50
2018-11-12T11:05:00.675Z,12.50
2018-11-12T11:07:29.255Z,12.40
2018-11-12T11:09:57.852Z,12.40
2018-11-12T11:12:26.479Z,12.40
2018-11-12T11:14:55.024Z,12.60
2018-11-12T11:17:23.624Z,12.60
2018-11-12T11:19:52.128Z,12.60
2018-11-12T11:22:20.491Z,12.70
2018-11-12T11:24:49.215Z,12.90
2018-11-12T11:27:17.927Z,12.90
2018-11-12T11:29:46.504Z,13.10
2018-11-12T11:32:15.384Z,13.20
2018-11-12T11:34:43.991Z,13.20
2018-11-12T11:37:12.979Z,13.30
2018-11-12T11:39:41.567Z,13.50
2018-11-12T11:42:10.328Z,13.50
2018-11-12T11:44:39.356Z,13.60
2018-11-12T11:47:08.326Z,13.70
2018-11-12T11:49:36.931Z,13.80
2018-11-12T11:52:05.996Z,13.80
2018-11-12T11:54:34.518Z,14.00
2018-11-12T11:57:03.033Z,14.10
2018-11-12T11:59:31.362Z,14.00
2018-11-12T12:01:59.930Z,14.10
2018-11-12T12:04:28.426Z,14.10
2018-11-12T12:06:56.811Z,14.10
2018-11-12T12:09:25.284Z,14.10
2018-11-12T12:11:53.710Z,14.20
2018-11-12T12:14:22.247Z,14.30
2018-11-12T12:16:50.655Z,14.40
2018-11-12T12:19:19.104Z,14.40
2018-11-12T12:21:47.807Z,14.50
2018-11-12T12:24:17.107Z,14.60
2018-11-12T12:26:45.875Z,14.80
2018-11-12T12:29:14.479Z,14.90
2018-11-12T12:31:42.863Z,15.00
2018-11-12T12:34:11.676Z,15.20
2018-11-12T12:36:40.356Z,15.30
2018-11-12T12:39:10.011Z,15.50
2018-11-12T12:41:38.555Z,15.70
2018-11-12T12:44:07.117Z,15.90
2018-11-12T12:46:35.894Z,16.00
2018-11-12T12:49:05.460Z,16.30
2018-11-12T12:51:34.273Z,16.50
2018-11-12T12:54:02.822Z,16.70
2018-11-12T12:56:31.595Z,17.00
2018-11-12T12:59:00.141Z,17.20
2018-11-12T13:01:28.708Z,17.40
2018-11-12T13:03:57.256Z,17.50
2018-11-12T13:06:25.622Z,17.70
2018-11-12T13:08:54.081Z,18.10
2018-11-12T13:11:23.054Z,18.30
2018-11-12T13:13:51.727Z,18.80
2018-11-12T13:16:20.343Z,19.30
2018-11-12T13:18:48.803Z,20.10
2018-11-12T13:21:17.447Z,21.50
2018-11-12T13:23:45.783Z,23.70
2018-11-12T13:26:14.271Z,25.80
2018-11-12T13:28:42.980Z,27.10
2018-11-12T13:31:11.647Z,28.00
2018-11-12T13:33:40.277Z,28.20
2018-11-12T13:36:08.629Z,29.20
2018-11-12T13:38:37.187Z,29.90
2018-11-12T13:41:06.290Z,31.40
2018-11-12T13:43:34.687Z,32.20
2018-11-12T13:46:03.161Z,33.50
2018-11-12T13:48:31.835Z,34.10
2018-11-12T13:51:00.535Z,34.70
2018-11-12T13:53:29.186Z,34.40
2018-11-12T13:55:58.171Z,34.30
2018-11-12T13:58:26.699Z,34.50
2018-11-12T14:00:55.568Z,34.90
2018-11-12T14:03:24.275Z,35.30
2018-11-12T14:05:52.847Z,35.60
2018-11-12T14:08:21.327Z,34.80
2018-11-12T14:10:49.959Z,34.70
2018-11-12T14:13:18.671Z,35.00
2018-11-12T14:15:47.407Z,35.00
2018-11-12T14:18:16.095Z,35.40
2018-11-12T14:20:44.498Z,35.00
2018-11-12T14:23:13.188Z,35.10
2018-11-12T14:25:42.009Z,34.70
2018-11-12T14:28:10.582Z,33.80
2018-11-12T14:30:39.209Z,34.00
2018-11-12T14:33:07.971Z,34.40
2018-11-12T14:35:36.867Z,34.60
2018-11-12T14:38:05.372Z,34.40
2018-11-12T14:40:34.020Z,33.70
2018-11-12T14:43:02.590Z,33.80
2018-11-12T14:45:31.296Z,33.60
2018-11-12T14:48:00.029Z,32.80
2018-11-12T14:50:28.716Z,32.70
2018-11-12T14:52:57.294Z,32.20
2018-11-12T14:55:26.035Z,31.30
2018-11-12T14:57:54.651Z,29.30
2018-11-12T15:00:24.663Z,29.30
2018-11-12T15:02:53.941Z,29.50
2018-11-12T15:05:23.871Z,28.60
2018-11-12T15:07:52.752Z,26.50
2018-11-12T15:10:21.173Z,24.00
2018-11-12T15:12:49.986Z,22.80
2018-11-12T15:15:18.698Z,21.70
2018-11-12T15:17:47.661Z,20.80
2018-11-12T15:20:17.617Z,20.20
2018-11-12T15:22:46.389Z,20.40
2018-11-12T15:25:20.319Z,20.00
2018-11-12T15:27:49.151Z,19.10
2018-11-12T15:30:19.758Z,18.40
2018-11-12T15:32:49.785Z,17.70
2018-11-12T15:35:18.476Z,17.50
2018-11-12T15:37:47.629Z,17.00
2018-11-12T15:40:16.368Z,16.40
2018-11-12T15:42:45.265Z,16.10
2018-11-12T15:45:16.292Z,15.90
2018-11-12T15:47:45.487Z,15.80
2018-11-12T15:50:21.549Z,15.60
2018-11-12T15:52:50.178Z,15.40
2018-11-12T15:55:19.142Z,15.00
2018-11-12T15:57:47.875Z,14.70
2018-11-12T16:00:17.038Z,14.60
2018-11-12T16:02:45.819Z,14.30
2018-11-12T16:05:14.696Z,14.30
2018-11-12T16:07:43.361Z,14.10
2018-11-12T16:10:15.280Z,14.00
2018-11-12T16:12:44.180Z,13.90
2018-11-12T16:15:13.961Z,13.70
2018-11-12T16:17:42.930Z,13.60
2018-11-12T16:20:29.826Z,13.50
2018-11-12T16:22:59.429Z,13.40
2018-11-12T16:25:28.491Z,13.20
2018-11-12T16:27:57.057Z,13.20
2018-11-12T16:30:25.761Z,13.00
2018-11-12T16:32:54.383Z,12.90
2018-11-12T16:35:23.897Z,12.80
2018-11-12T16:37:53.112Z,12.70
2018-11-12T16:40:21.768Z,12.60
2018-11-12T16:42:50.653Z,12.50
2018-11-12T16:45:19.357Z,12.40
2018-11-12T16:47:48.270Z,12.20
2018-11-12T16:50:17.592Z,12.10
2018-11-12T16:52:46.384Z,12.00
2018-11-12T16:55:19.685Z,11.90
2018-11-12T16:57:49.037Z,11.90
2018-11-12T17:00:18.801Z,11.70
2018-11-12T17:02:47.729Z,11.70
2018-11-12T17:05:18.832Z,11.50
2018-11-12T17:07:47.684Z,11.50
2018-11-12T17:10:17.716Z,11.50
2018-11-12T17:12:46.885Z,11.40
2018-11-12T17:15:15.813Z,11.40
2018-11-12T17:17:44.827Z,11.40
2018-11-12T17:20:14.917Z,11.30
2018-11-12T17:22:43.660Z,11.20
2018-11-12T17:25:13.476Z,11.10
2018-11-12T17:27:42.944Z,11.10
2018-11-12T17:30:13.993Z,11.00
2018-11-12T17:32:43.092Z,10.90
2018-11-12T17:35:13.056Z,10.80
2018-11-12T17:37:41.712Z,10.80
2018-11-12T17:40:15.697Z,10.70
2018-11-12T17:42:45.213Z,10.70
2018-11-12T17:45:15.348Z,10.60
2018-11-12T17:47:45.414Z,10.60
2018-11-12T17:50:14.124Z,10.50
2018-11-12T17:52:42.813Z,10.50
2018-11-12T17:55:11.933Z,10.40
2018-11-12T17:57:40.517Z,10.50
2018-11-12T18:00:14.009Z,10.50
2018-11-12T18:02:43.001Z,10.40
2018-11-12T18:05:11.706Z,10.40
2018-11-12T18:07:41.175Z,10.30
2018-11-12T18:10:10.665Z,10.30
2018-11-12T18:12:39.680Z,10.20
2018-11-12T18:15:11.021Z,10.10
2018-11-12T18:17:39.847Z,10.10
2018-11-12T18:20:15.168Z,10.00
2018-11-12T18:22:43.885Z,10.00
2018-11-12T18:25:13.165Z,10.00
2018-11-12T18:27:42.136Z,10.00
2018-11-12T18:30:13.904Z,9.90
2018-11-12T18:32:43.198Z,9.80
2018-11-12T18:35:11.949Z,9.70
2018-11-12T18:37:40.672Z,9.70
2018-11-12T18:40:11.055Z,9.60
2018-11-12T18:42:39.951Z,9.60
2018-11-12T18:45:11.335Z,9.60
2018-11-12T18:47:40.715Z,9.60
2018-11-12T18:50:12.994Z,9.50
2018-11-12T18:52:41.974Z,9.40
2018-11-12T18:55:10.888Z,9.40
2018-11-12T18:57:40.240Z,9.30
2018-11-12T19:00:10.728Z,9.40
2018-11-12T19:02:40.079Z,9.40
2018-11-12T19:05:17.988Z,9.40
2018-11-12T19:07:48.168Z,9.30
2018-11-12T19:10:19.233Z,9.30
2018-11-12T19:12:48.746Z,9.30
2018-11-12T19:15:19.129Z,9.30
2018-11-12T19:17:50.348Z,9.30
2018-11-12T19:20:19.047Z,9.30
2018-11-12T19:22:47.656Z,9.30
2018-11-12T19:25:16.663Z,9.20
2018-11-12T19:27:45.382Z,9.20
2018-11-12T19:30:16.809Z,9.20
2018-11-12T19:32:45.517Z,9.20
2018-11-12T19:35:15.377Z,9.20
2018-11-12T19:37:44.123Z,9.10
2018-11-12T19:40:14.334Z,9.10
2018-11-12T19:42:43.802Z,9.00
2018-11-12T19:45:13.196Z,9.00
2018-11-12T19:47:42.158Z,8.90
2018-11-12T19:50:13.616Z,8.90
2018-11-12T19:52:43.548Z,8.90
2018-11-12T19:55:12.405Z,8.80
2018-11-12T19:57:41.448Z,8.80
2018-11-12T20:00:12.680Z,8.90
2018-11-12T20:02:42.625Z,8.90
2018-11-12T20:05:11.352Z,8.80
2018-11-12T20:07:40.593Z,8.80
2018-11-12T20:10:11.054Z,8.80
2018-11-12T20:12:39.969Z,8.70
2018-11-12T20:15:09.216Z,8.60
2018-11-12T20:17:38.088Z,8.60
2018-11-12T20:20:10.492Z,8.60
2018-11-12T20:22:39.352Z,8.50
2018-11-12T20:25:08.725Z,8.50
2018-11-12T20:27:37.492Z,8.40
2018-11-12T20:30:09.096Z,8.40
2018-11-12T20:32:37.614Z,8.40
2018-11-12T20:35:06.921Z,8.40
2018-11-12T20:37:35.705Z,8.40
2018-11-12T20:40:04.716Z,8.40
2018-11-12T20:42:33.421Z,8.40
2018-11-12T20:45:02.086Z,8.30
2018-11-12T20:47:30.865Z,8.30
2018-11-12T20:49:59.427Z,8.30
2018-11-12T20:52:28.255Z,8.30
2018-11-12T20:54:58.116Z,8.30
2018-11-12T20:57:26.736Z,8.30
2018-11-12T20:59:55.412Z,8.30
2018-11-12T21:02:24.117Z,8.30
2018-11-12T21:04:52.980Z,8.20
2018-11-12T21:07:21.727Z,8.20
2018-11-12T21:09:50.361Z,8.20
2018-11-12T21:12:19.278Z,8.10
2018-11-12T21:14:48.082Z,8.10
2018-11-12T21:17:16.757Z,8.00
2018-11-12T21:19:45.721Z,8.00
2018-11-12T21:22:15.029Z,8.00
2018-11-12T21:24:44.103Z,8.00
2018-11-12T21:27:12.705Z,8.00
2018-11-12T21:29:41.521Z,8.00
2018-11-12T21:32:10.112Z,7.90
2018-11-12T21:34:38.767Z,7.90
2018-11-12T21:37:07.662Z,7.90
2018-11-12T21:39:36.433Z,8.00
2018-11-12T21:42:05.228Z,7.80
2018-11-12T21:44:34.129Z,7.90
2018-11-12T21:47:02.859Z,7.80
2018-11-12T21:49:31.535Z,7.90
2018-11-12T21:52:00.210Z,7.80
2018-11-12T21:54:29.113Z,7.80
2018-11-12T21:56:58.344Z,7.80
2018-11-12T21:59:26.906Z,7.80
2018-11-12T22:01:55.548Z,7.80
2018-11-12T22:04:24.332Z,7.80
2018-11-12T22:06:53.016Z,7.70
2018-11-12T22:09:21.921Z,7.70
2018-11-12T22:11:50.977Z,7.60
2018-11-12T22:14:19.597Z,7.50
2018-11-12T22:16:48.468Z,7.60
2018-11-12T22:19:17.095Z,7.60
2018-11-12T22:21:45.956Z,7.60
2018-11-12T22:24:14.743Z,7.60
2018-11-12T22:26:43.362Z,7.60
2018-11-12T22:29:12.340Z,7.60
2018-11-12T22:31:41.105Z,7.60
2018-11-12T22:34:09.917Z,7.60
2018-11-12T22:36:38.892Z,7.60
2018-11-12T22:39:08.997Z,7.60
2018-11-12T22:41:37.712Z,7.60
2018-11-12T22:44:06.411Z,7.50
2018-11-12T22:46:35.070Z,7.50
2018-11-12T22:49:04.041Z,7.50
2018-11-12T22:51:32.752Z,7.40
2018-11-12T22:54:01.445Z,7.50
2018-11-12T22:56:30.337Z,7.50
2018-11-12T22:58:59.184Z,7.40
2018-11-12T23:01:27.709Z,7.40
2018-11-12T23:03:56.432Z,7.40
2018-11-12T23:06:25.173Z,7.40
2018-11-12T23:08:53.808Z,7.30
2018-11-12T23:11:22.457Z,7.30
2018-11-12T23:13:51.232Z,7.30
2018-11-12T23:16:20.513Z,7.30
2018-11-12T23:18:49.217Z,7.30
2018-11-12T23:21:18.115Z,7.30
2018-11-12T23:23:47.112Z,7.30
2018-11-12T23:26:15.798Z,7.40
2018-11-12T23:28:44.491Z,7.40
2018-11-12T23:31:13.505Z,7.30
2018-11-12T23:33:42.197Z,7.40
2018-11-12T23:36:11.161Z,7.30
2018-11-12T23:38:39.961Z,7.30
2018-11-12T23:41:08.755Z,7.20
2018-11-12T23:43:37.384Z,7.20
2018-11-12T23:46:06.244Z,7.20
2018-11-12T23:48:34.934Z,7.20
2018-11-12T23:51:03.661Z,7.20
2018-11-12T23:53:32.583Z,7.10
2018-11-12T23:56:01.616Z,7.20
2018-11-12T23:58:30.560Z,7.20
